Terminal Aerodrome Forecast
Issued by NWS

Home | Current Version | Previous Version | Text Only | Print | Product List | Glossary On
Versions: 1 2 3 4 5 6 7 8 9 10 11 12 13 14
000
FTUS43 KPAH 300500
TAFCGI
TAF
KCGI 300520Z 3006/3106 00000KT P6SM SKC
      TEMPO 3009/3012 3SM BR
     FM301300 25003KT P6SM BKN070
     FM310100 00000KT P6SM SKC=

USA.gov is the U.S. government's official web portal to all federal, state and local government web resources and services.